cliquez pour ajouter le site Runraid à vos favoris  English version (google)  Retour à l'accueil Ecrire à l'auteur du site Runraid : Michel Jourdan



Les prochaines courses


Les derniers résultats

cliquez pour visualiser la page complète relatant la chronologie des éruptions du Piton de la Fournaise
éruptions Piton de la Fournaise


Ile de La Réunion

 Diagonale des Fous 

Ecrire au créateur du site : Michel Jourdan
Contact


2014-12-07 - Kours Ti Bwa 10 km

Pour consulter le palmarès d'un coureur, un clic sur son nom !

Vous avez des remarques, corrections, ... sur ces résultats , un clic sur --> pour me transmettre toute information concernant les classements


Kours Ti Bwa 10 km - 2014 : classement des 187 finishers
Place Nom Temps Cat. Club Sexe Clt/cat.
Place Nom Temps Cat. Club Sexe Clt/cat.
1 PAYET Jean Patrice 00:42:43 V1H - M 422
2 BARLIEU Ronan 00:42:45 ESH Caposs M 1er Espoir 593
3 RICHARD Jean Yves 00:45:06 V1H Caposs M 595
4 DALLY ERRAYA Frederic 00:45:57 SEM Acstb M 492
5 DIJOUX David 00:46:12 SEM Plateau Caillou Non Licen M 485
6 ZITTE Ulrich 00:46:57 SEM Trois Bassins Non Licenci M 403
7 NEMORIN Henri Claude 00:47:01 SEM Saint Paul Non Licencie M 451
8 VEFOUR Stephane 00:47:30 SEM Ouest Trail M 411
9 MERMERA Fred 00:47:32 V2H Licencie M 1er V2 413
10 DUBOIS Vivien 00:47:35 JUH M 1er Junior 405
11 ITEME IMBER Olivier 00:48:00 SEM Ouest Trail M 496
12 GALAIS Jean Bernard 00:49:16 V1H St Gilles les Bains Non L M 400
13 CATAYE Georges Marie 00:49:29 SEM - M 540
14 LAURET Jean Denis 00:49:37 V1H Ouest Trail M 494
15 NOEL Loic 00:49:46 SEM - M 500
16 ETOUARIA David 00:50:04 SEM - M 421
17 SALVADOR Jean Louis 00:50:51 V2H Csp M 2eme V2F 406
18 LORION Jannick 00:51:03 SEM Ouest Trail M 499
19 LARTIN Jean Michel 00:51:07 V1H Tan Rouge Licencie M 584
20 MARY CATAN Steven 00:51:11 SEM Ouest Trail M 497
21 SINAMA Henri Claude 00:51:15 SEM - M 460
22 GASTRIN ALANNE 00:51:26 JUH Caposs M 2eme Junior 539
23 MUSSIDAN Gael 00:51:28 SEM - M 465
24 JULIENNE Richelet 00:51:32 V2H Trois Bassins Licencie M 3eme V2F 482
25 CLAIN Nicolas 00:51:35 SEM - M 455
26 LAMBERT Alexandre 00:51:56 SEM - M 461
27 JACQUENET John 00:52:19 V1H St Pierre Licencie M 453
28 LON MON POY Eric 00:52:23 V1H - M 507
29 SOUBOU Richelet 00:52:38 V1H - M 582
30 LIBBEL Joris 00:52:57 SEM Caposs M 594
31 ZITTE Brice 00:52:59 ESH - M 2eme espoir 578
32 VIDOT Francois 00:53:40 V1H Csp M 549
33 BERTIL Ericson 00:53:51 SEM - M 548
34 GONFO Luxen 00:54:01 V1H Run Athletique M 408
35 HOARAU Eric 00:54:37 V1H - M 565
36 JANIS Bruno 00:54:43 V1H - M 598
37 CLOPON Thierry 00:55:11 V1H - M 404
38 HOARAU Jean Marc 00:55:16 SEM Ouest Trail M 412
39 BEONEL Jean David 00:55:20 SEM - M 541
40 GAUTHIER Adrien 00:55:24 SEM - M 560
41 GROSSET David 00:55:29 SEM Caposs M 591
42 LIVAVATE Laurent 00:56:10 SEM - M 597
43 SOUBOU Loic 00:56:26 JUH - M 3eme Junior 581
44 SCODAVOLPE Fabrice 00:56:31 SEM - M 501
45 BEONEL Fabrice 00:56:46 V1H - M 554
46 MARTEL Stephane 00:56:49 SEM - M 490
47 AURE Jean Marc 00:56:52 V1H - M 443
48 AURE Yvon 00:56:56 V2H Acsp M 488
49 TURPIN Henri 00:57:03 V2H - M 479
50 HOARAU Clarisse 00:57:18 V1F - F 1ere F 715
51 LAW YAM Michel 00:57:35 V3H - M 1er V3 569
52 MARIE JEANNE Jim Jean Michel 00:57:40 SEM - M 407
53 FANGUIMACHE Jean Luc 00:57:48 V1H - M 484
54 DAMOUR Henri 00:57:51 V2H Acsp M 446
55 GUILLAUME Yann 00:57:54 V1H - M 589
56 SOMNIKA Alain 00:57:58 V2H Le Port M 464
57 HIDALGO Bruno 00:58:19 CAH Ouest Trail M 1er Cadet 498
58 SERAPHIN Patrick 00:58:24 SEM - M 564
59 KONDOKI Jean Claude 00:58:43 V1H - M 562
60 PERFILLON Sullivan 00:58:58 SEM - M 579
61 CENDIER Ericsson 00:59:39 SEM - M 561
62 NOEL Jean Loup 00:59:43 V2H St Gilles les Bains Licen M 556
63 DUCHEMANN Marie Murielle 00:59:56 SEF Ste Clotilde Licencie F 2eme F 706
64 TIBERE Jean Baptiste 01:00:03 V1H - M 590
65 DESIRE Jean Luc 01:00:32 V1H - M 563
66 GARDENAT Jean Pierre 01:00:43 V2H - M 577
67 VERBARD Berty 01:00:50 SEM - M 545
68 LAVOCAT Odile 01:00:59 V1F Caposs F 3eme F 709
69 GORE Christophe 01:01:26 SEM St Paul Licencie M 587
70 PAYET Yannick 01:01:32 V1H Acsp M 505
71 BOIS Jean Fred 01:01:42 SEM - M 568
72 FANGUIMACHE Jean Francois 01:01:45 V1H - M 506
73 CLAIN Jacques 01:02:08 V2H Acc M 489
74 ALCMEON Jimmy 01:02:12 V1H - M 574
75 GABIOU Marie Jasmine 01:02:20 V2F - F 1ere V2F 707
76 POTER Jeremy 01:02:25 SEM - M 483
77 BERTILLE Jean Bernard 01:02:30 SEM - M 476
78 HOARAU Roger 01:02:41 V2H - M 542
79 DEMOUSTIER Jean Francois 01:02:46 V1H St Paul Licencie M 576
80 VIRAMA LATCHOUMY Jacky 01:02:57 V2H - M 575
81 ARAUX Thiery 01:03:01 V1H - M 570
82 PERSEE Yolain 01:03:03 V1H - M 544
83 MARIE MARTHE Bernard 01:03:27 V2H Csp M 445
84 BERILE Pascal 01:03:28 V1H - M 486
85 VERI Jerome 01:03:36 SEM - M 466
86 PUYLAURENT Frederic 01:03:47 V1H - M 402
87 CHABAUD Nadine 01:03:51 V1F Ouest Trail F 3eme V1F 759
88 MINATCHY Christopher 01:03:55 SEM - M 551
89 FATOL Philippe 01:03:59 V1H - M 571
90 MINATCHY Georges 01:04:03 V2H - M 550
91 SAUTRON Jean Jacques 01:04:06 V1H - M 588
92 GRIMAUD Emmanuel 01:04:08 V2H - M 555
93 MURRON Jean Brice 01:05:06 SEM - M 444
94 SIMME Jean Prisca Elson 01:05:35 SEM Ca Ste Marie M 474
95 GAUTHERIN Nathalie 01:05:54 V2F - F 2eme V2F 713
96 LANGENIER Dimitri 01:05:59 SEM - M 543
97 GRONDIN Isnelle 01:06:01 V1F - F 714
98 MARIE JEANNE Gervais 01:06:05 V2H - M 448
99 BULIN Noel Jean Philippe 01:06:35 V1H - M 580
100 BALLIF Elisabeth 01:06:37 V2F Ouest Trail F 3eme V2F 764
101 MASSEAUX Yolande 01:06:50 V1F - F 763
102 MENIER Jerome 01:06:55 SEM - M 596
103 MARIMOUTOU Samuel 01:06:59 SEM Le Port M 423
104 BOYER Denis 01:07:07 V1H - M 480
105 SAPET Carine 01:07:12 V1F - F 712
106 VIRASSAMY Joreme 01:07:46 V1H Ermitage les Hauts M 708
107 PAUSE Jannick 01:07:47 V3H - M 2eme V3 583
108 HUNEZ Sabine 01:07:53 V1F - F 754
109 EDMOND Jacques 01:08:02 V2H - M 440
110 HOARAU Karine 01:08:04 V1F - F 704
111 BAVOL Patrick 01:08:07 SEM - M 450
112 TATEL Andre Philippe 01:08:09 H Le Port M 424
113 LIVAVATE Christophie 01:08:12 SEF - F 710
114 FOSSY Murielle 01:08:43 SEF Licencie F 722
115 HIBON Mathieu 01:09:00 ESH - M 3eme espoir 468
116 PERITA Bernard 01:09:03 V1H - M 473
117 LEBOT Denise 01:09:10 V3F Ouest Trail F 1ere V3F 765
118 SAIDOU Guy 01:09:17 V2H - M 547
119 CONSTANTE Marie Sylvie 01:09:26 V1F Ouest Trail F 768
120 SINAMA Jean Michel 01:09:30 V3H - M 3eme V3 459
121 BLAIZAT PIGEAT Marie Ange 01:10:11 V2F - F 711
122 HOARAU Jean Marie 01:10:35 V2H - M 572
123 PLEISSIER Ethienne 01:10:50 SEM - M 504
124 TAILON ROY Maryse 01:11:02 SEF - F 758
125 MADZERE Jean Thierry 01:11:09 V1H - M 546
126 MORVAN Cedric 01:11:23 SEM - M 503
127 BEDACHE Raissa 01:11:59 SEF - F 783
128 HUGUET Antoine 01:12:05 SEM - M 586
129 TERRASSON Francis 01:12:35 V2H Licencie M 559
130 MOUROUVIN Georges Marie 01:12:50 V1H - M 487
131 PUYLAURENT Jean Charles 01:13:10 SEM - M 442
132 MARIE JEANNE Julien 01:13:23 JUH - M 447
133 LEBOT Stephanie 01:13:28 SEF Ouest Trail F 766
134 GALAIS VIDOT Karine 01:13:32 SEF Csp F 716
135 ORANCE Mederic 01:13:41 SEM - M 585
136 DE FONDAUMIER Sebastien 01:13:51 SEM - M 462
137 SADEYEN Antoine 01:13:59 V2H - M 493
138 TAURAN Brunela 01:14:01 SEF - F 772
139 CADET Genieve 01:14:04 V1F - F 705
140 ADDAD Joseph 01:14:09 V2H Ouest Trail M 573
141 NEMORIN Nadege 01:14:13 V1F Csp F 757
142 MARIMOUTOU Sophie 01:14:36 V1F Le Port F 726
143 FATOL Denis 01:15:02 V1H - M 475
144 GAIGNON Eugenie 01:15:08 SEF - F 700
145 GLEY Francis 01:15:16 V2H - M 463
146 SIMINE Gary 01:15:26 SEM - M 410
147 GARDENAT Yannis 01:16:02 SEM - M 567
148 TRIVY Jean Marie 01:16:19 V1H - M 557
149 DUBOURG Regine 01:16:30 V1F - F 753
150 RAVEL Morgane 01:17:48 SEF Caposs F 720
151 QUEGUINER Romain 01:17:49 V1H - M 553
152 MANTES Georges Marie 01:18:13 V2H - M 478
153 MULOT Christian 01:18:18 V1H Ermitage Nl M 449
154 QUONIAM Thierry 01:19:30 V1H - M 467
155 DE FLORE Djevaradj 01:19:49 SEM - M 566
156 ANDRIOT Gilbert 01:20:06 V3H Ouest Trail M 469
157 ORUS Edwige 01:20:13 V1F Le Port F 725
158 ABRAL Fabien 01:21:06 SEM - M 470
159 DI GUARDO Patrick 01:21:08 V2H - M 477
160 MARIE MARTHE Rejanne 01:21:12 V1F Csp F 767
161 EDMOND Jean David 01:22:23 SEM - M 441
162 MOUNIAMA Patrick 01:22:55 V1H - M 481
163 PUYLAURENT Nadia 01:22:57 V1F - F 755
164 GOULAMOUSSENE Marie Nathalie 01:23:01 V1F Csp F 756
165 COUTAYE Marie Anne 01:23:05 V2F - F 773
166 MINATCHY Jean Eric 01:23:56 V1H - M 454
167 VINGADASSALOM Alexandre 01:24:05 SEM - M 491
168 MUSSIDAN Sidonie 01:24:31 V1F - F 774
169 SINAMA Jean Yannick 01:24:54 SEM - M 458
170 MULLA Laika 01:25:16 SEF - F 761
171 PICOT Regis 01:27:27 V4H Ouest Trail M 1er V4 495
172 CANON Jocelyne 01:28:06 SEF - F 702
173 PEDASE Jocelyne 01:28:11 V1F - F 703
174 JUHEL Monique 01:28:18 V2F Acstb F 762
175 ALAUX Sophie 01:29:20 V1F - F 769
176 PAYET Karine 01:30:12 V1F - F 771
177 ALAUX Enzo 01:30:15 MIH - M 456
178 ALAUX Jean Francois 01:30:17 V1H - M 457
179 CHILA SAMBA Lindsay 01:30:42 V2F - F 718
180 ADRIEN Loic 01:33:21 ESH - M 552
181 AJAGUIN SOLEYEN Marie 01:34:15 V1F - F 717
182 PAUSE Lesly Marie Oceance 01:34:40 ESF - F 1ere ESF 776
183 CHILA SAMBA Magalie 01:34:44 V1F - F 719
184 HERODE Gianni 01:40:29 V1H - M 558
185 DIJOUX Estelle 01:44:45 SEF - F 770
186 CRESSENCE Edith 02:10:40 V1F Le Port F 723
187 ZAMPIERO Vincent 02:10:42 V1H - M 472


ReferencementCe site est listé dans la catégorie Sport : Sports extrêmes Dictionnaire
| Accueil | La Réunion  Vue du ciel | Météo | Cyclones | Volcan | Cirques de Mafate , Cilaos , Salazie | Photos Randonnées | Randonnées Réunion: Randos Espiègle , Courses montagne | Diagonale des Fous |  Marathon des Sables | Voyages Les stats du site | Fonds écran | Plan du site | Blog de runraid | Galerie photos Sport Réunion |